sensor_id;sensor_type;location;lat;lon;timestamp;temperature;humidity
34776;DHT22;20989;52.566;13.346;2023-05-02T00:01:41;21.20;45.50
34776;DHT22;20989;52.566;13.346;2023-05-02T00:04:42;21.10;45.40
34776;DHT22;20989;52.566;13.346;2023-05-02T00:07:43;21.20;45.50
34776;DHT22;20989;52.566;13.346;2023-05-02T00:10:44;21.10;45.50
34776;DHT22;20989;52.566;13.346;2023-05-02T00:13:44;21.10;45.50
34776;DHT22;20989;52.566;13.346;2023-05-02T00:16:45;21.10;45.50
34776;DHT22;20989;52.566;13.346;2023-05-02T00:19:46;21.10;45.40
34776;DHT22;20989;52.566;13.346;2023-05-02T00:22:47;21.10;45.40
34776;DHT22;20989;52.566;13.346;2023-05-02T00:25:48;21.10;45.40
34776;DHT22;20989;52.566;13.346;2023-05-02T00:28:49;21.10;45.40
34776;DHT22;20989;52.566;13.346;2023-05-02T00:31:50;21.20;45.40
34776;DHT22;20989;52.566;13.346;2023-05-02T00:34:51;21.10;45.30
34776;DHT22;20989;52.566;13.346;2023-05-02T00:37:51;21.10;45.40
34776;DHT22;20989;52.566;13.346;2023-05-02T00:40:52;21.10;45.30
34776;DHT22;20989;52.566;13.346;2023-05-02T00:43:53;21.10;45.30
34776;DHT22;20989;52.566;13.346;2023-05-02T00:46:54;21.10;45.30
34776;DHT22;20989;52.566;13.346;2023-05-02T00:49:55;21.10;45.30
34776;DHT22;20989;52.566;13.346;2023-05-02T00:52:59;21.10;45.30
34776;DHT22;20989;52.566;13.346;2023-05-02T00:56:01;21.10;45.30
34776;DHT22;20989;52.566;13.346;2023-05-02T00:59:03;21.10;45.30
34776;DHT22;20989;52.566;13.346;2023-05-02T01:02:12;21.10;45.20
34776;DHT22;20989;52.566;13.346;2023-05-02T01:05:39;21.10;45.20
34776;DHT22;20989;52.566;13.346;2023-05-02T01:08:56;21.10;45.20
34776;DHT22;20989;52.566;13.346;2023-05-02T01:15:25;21.10;45.20
34776;DHT22;20989;52.566;13.346;2023-05-02T01:18:30;21.10;45.20
34776;DHT22;20989;52.566;13.346;2023-05-02T01:21:32;21.10;45.20
34776;DHT22;20989;52.566;13.346;2023-05-02T01:31:18;21.10;45.20
34776;DHT22;20989;52.566;13.346;2023-05-02T01:34:20;21.10;45.20
34776;DHT22;20989;52.566;13.346;2023-05-02T01:37:22;21.10;45.20
34776;DHT22;20989;52.566;13.346;2023-05-02T01:40:24;21.10;45.20
34776;DHT22;20989;52.566;13.346;2023-05-02T01:43:26;21.10;45.10
34776;DHT22;20989;52.566;13.346;2023-05-02T01:46:33;21.10;45.20
34776;DHT22;20989;52.566;13.346;2023-05-02T01:49:34;21.00;45.60
34776;DHT22;20989;52.566;13.346;2023-05-02T01:52:36;21.00;45.10
34776;DHT22;20989;52.566;13.346;2023-05-02T01:55:38;21.00;45.10
34776;DHT22;20989;52.566;13.346;2023-05-02T01:58:40;21.10;45.10
34776;DHT22;20989;52.566;13.346;2023-05-02T02:01:42;21.10;45.10
34776;DHT22;20989;52.566;13.346;2023-05-02T02:04:45;21.10;45.20
34776;DHT22;20989;52.566;13.346;2023-05-02T02:07:46;21.10;45.10
34776;DHT22;20989;52.566;13.346;2023-05-02T02:10:56;21.10;45.10
34776;DHT22;20989;52.566;13.346;2023-05-02T02:14:05;21.10;45.10
34776;DHT22;20989;52.566;13.346;2023-05-02T02:17:12;21.10;45.10
34776;DHT22;20989;52.566;13.346;2023-05-02T02:20:15;21.10;45.10
34776;DHT22;20989;52.566;13.346;2023-05-02T02:23:20;21.10;45.10
34776;DHT22;20989;52.566;13.346;2023-05-02T02:26:22;21.10;45.10
34776;DHT22;20989;52.566;13.346;2023-05-02T02:29:22;21.10;45.10
34776;DHT22;20989;52.566;13.346;2023-05-02T02:32:23;21.10;45.10
34776;DHT22;20989;52.566;13.346;2023-05-02T02:35:42;21.00;45.10
34776;DHT22;20989;52.566;13.346;2023-05-02T02:39:06;21.00;45.00
34776;DHT22;20989;52.566;13.346;2023-05-02T02:42:24;21.00;45.10
34776;DHT22;20989;52.566;13.346;2023-05-02T02:49:14;21.10;45.10
34776;DHT22;20989;52.566;13.346;2023-05-02T02:52:32;21.10;45.20
34776;DHT22;20989;52.566;13.346;2023-05-02T02:55:51;21.00;45.10
34776;DHT22;20989;52.566;13.346;2023-05-02T02:59:26;21.00;45.10
34776;DHT22;20989;52.566;13.346;2023-05-02T03:02:31;21.10;45.20
34776;DHT22;20989;52.566;13.346;2023-05-02T03:05:32;21.00;45.10
34776;DHT22;20989;52.566;13.346;2023-05-02T03:08:42;21.00;45.10
34776;DHT22;20989;52.566;13.346;2023-05-02T03:11:43;21.00;45.20
34776;DHT22;20989;52.566;13.346;2023-05-02T03:14:45;21.00;45.20
34776;DHT22;20989;52.566;13.346;2023-05-02T03:17:46;21.00;45.20
34776;DHT22;20989;52.566;13.346;2023-05-02T03:20:47;21.00;45.20
34776;DHT22;20989;52.566;13.346;2023-05-02T03:23:47;21.00;45.20
34776;DHT22;20989;52.566;13.346;2023-05-02T03:26:48;21.00;45.20
34776;DHT22;20989;52.566;13.346;2023-05-02T03:29:49;21.00;45.20
34776;DHT22;20989;52.566;13.346;2023-05-02T03:32:50;21.00;45.20
34776;DHT22;20989;52.566;13.346;2023-05-02T03:35:50;21.00;45.20
34776;DHT22;20989;52.566;13.346;2023-05-02T03:38:51;21.00;45.30
34776;DHT22;20989;52.566;13.346;2023-05-02T03:41:52;21.00;45.20
34776;DHT22;20989;52.566;13.346;2023-05-02T03:44:52;21.00;45.20
34776;DHT22;20989;52.566;13.346;2023-05-02T03:47:54;21.00;45.20
34776;DHT22;20989;52.566;13.346;2023-05-02T03:50:54;21.00;45.20
34776;DHT22;20989;52.566;13.346;2023-05-02T03:53:56;21.00;45.30
34776;DHT22;20989;52.566;13.346;2023-05-02T03:56:58;21.00;45.30
34776;DHT22;20989;52.566;13.346;2023-05-02T04:00:33;21.00;45.30
34776;DHT22;20989;52.566;13.346;2023-05-02T04:03:35;21.00;45.30
34776;DHT22;20989;52.566;13.346;2023-05-02T04:06:35;20.90;45.30
34776;DHT22;20989;52.566;13.346;2023-05-02T04:09:37;21.00;45.30
34776;DHT22;20989;52.566;13.346;2023-05-02T04:12:38;21.00;45.20
34776;DHT22;20989;52.566;13.346;2023-05-02T04:15:39;21.00;45.30
34776;DHT22;20989;52.566;13.346;2023-05-02T04:18:39;21.00;45.40
34776;DHT22;20989;52.566;13.346;2023-05-02T04:21:40;21.00;45.30
34776;DHT22;20989;52.566;13.346;2023-05-02T04:24:41;20.90;45.30
34776;DHT22;20989;52.566;13.346;2023-05-02T04:27:42;21.00;45.30
34776;DHT22;20989;52.566;13.346;2023-05-02T04:30:42;21.00;45.30
34776;DHT22;20989;52.566;13.346;2023-05-02T04:33:43;21.00;45.30
34776;DHT22;20989;52.566;13.346;2023-05-02T04:36:45;20.90;45.30
34776;DHT22;20989;52.566;13.346;2023-05-02T04:39:48;21.00;45.80
34776;DHT22;20989;52.566;13.346;2023-05-02T04:42:49;21.00;45.30
34776;DHT22;20989;52.566;13.346;2023-05-02T04:45:50;21.00;45.30
34776;DHT22;20989;52.566;13.346;2023-05-02T04:48:51;20.90;45.30
34776;DHT22;20989;52.566;13.346;2023-05-02T04:51:51;20.90;45.40
34776;DHT22;20989;52.566;13.346;2023-05-02T04:54:52;21.00;45.10
34776;DHT22;20989;52.566;13.346;2023-05-02T04:57:53;21.10;45.20
34776;DHT22;20989;52.566;13.346;2023-05-02T05:00:54;21.10;45.20
34776;DHT22;20989;52.566;13.346;2023-05-02T05:03:55;21.10;45.20
34776;DHT22;20989;52.566;13.346;2023-05-02T05:06:55;21.10;45.20
34776;DHT22;20989;52.566;13.346;2023-05-02T05:09:56;21.20;45.50
34776;DHT22;20989;52.566;13.346;2023-05-02T05:12:57;21.20;45.60
34776;DHT22;20989;52.566;13.346;2023-05-02T05:15:57;21.20;45.40
34776;DHT22;20989;52.566;13.346;2023-05-02T05:18:58;21.20;45.40
34776;DHT22;20989;52.566;13.346;2023-05-02T05:21:59;21.20;45.40
34776;DHT22;20989;52.566;13.346;2023-05-02T05:25:00;21.20;45.70
34776;DHT22;20989;52.566;13.346;2023-05-02T05:28:01;21.20;45.60
34776;DHT22;20989;52.566;13.346;2023-05-02T05:31:10;21.20;45.70
34776;DHT22;20989;52.566;13.346;2023-05-02T05:34:12;21.20;45.80
34776;DHT22;20989;52.566;13.346;2023-05-02T05:37:13;21.20;45.90
34776;DHT22;20989;52.566;13.346;2023-05-02T05:40:13;21.30;45.50
34776;DHT22;20989;52.566;13.346;2023-05-02T05:43:14;21.20;45.60
34776;DHT22;20989;52.566;13.346;2023-05-02T05:46:15;21.30;45.70
34776;DHT22;20989;52.566;13.346;2023-05-02T05:49:16;21.30;45.50
34776;DHT22;20989;52.566;13.346;2023-05-02T05:52:17;21.40;45.90
34776;DHT22;20989;52.566;13.346;2023-05-02T05:55:17;21.40;45.80
34776;DHT22;20989;52.566;13.346;2023-05-02T05:58:18;21.40;45.70
34776;DHT22;20989;52.566;13.346;2023-05-02T06:01:19;21.40;46.10
34776;DHT22;20989;52.566;13.346;2023-05-02T06:04:20;21.30;45.60
34776;DHT22;20989;52.566;13.346;2023-05-02T06:07:20;21.40;45.70
34776;DHT22;20989;52.566;13.346;2023-05-02T06:10:21;21.40;45.70
34776;DHT22;20989;52.566;13.346;2023-05-02T06:13:22;21.40;45.90
34776;DHT22;20989;52.566;13.346;2023-05-02T06:16:23;21.40;46.10
34776;DHT22;20989;52.566;13.346;2023-05-02T06:19:23;21.40;46.00
34776;DHT22;20989;52.566;13.346;2023-05-02T06:22:24;21.30;46.00
34776;DHT22;20989;52.566;13.346;2023-05-02T06:25:26;21.30;46.10
34776;DHT22;20989;52.566;13.346;2023-05-02T06:28:27;21.30;46.10
34776;DHT22;20989;52.566;13.346;2023-05-02T06:31:28;21.20;46.00
34776;DHT22;20989;52.566;13.346;2023-05-02T06:34:31;21.20;46.00
34776;DHT22;20989;52.566;13.346;2023-05-02T06:37:33;21.20;46.00
34776;DHT22;20989;52.566;13.346;2023-05-02T06:40:35;21.20;45.90
34776;DHT22;20989;52.566;13.346;2023-05-02T06:43:37;21.10;45.90
34776;DHT22;20989;52.566;13.346;2023-05-02T06:46:38;21.10;45.80
34776;DHT22;20989;52.566;13.346;2023-05-02T06:49:39;21.10;45.80
34776;DHT22;20989;52.566;13.346;2023-05-02T06:52:40;21.10;45.80
34776;DHT22;20989;52.566;13.346;2023-05-02T06:55:41;21.10;45.90
34776;DHT22;20989;52.566;13.346;2023-05-02T06:58:41;21.00;45.70
34776;DHT22;20989;52.566;13.346;2023-05-02T07:01:45;21.10;45.80
34776;DHT22;20989;52.566;13.346;2023-05-02T07:04:46;21.00;45.70
34776;DHT22;20989;52.566;13.346;2023-05-02T07:07:46;21.10;45.80
34776;DHT22;20989;52.566;13.346;2023-05-02T07:10:47;21.00;45.70
34776;DHT22;20989;52.566;13.346;2023-05-02T07:13:48;21.00;45.70
34776;DHT22;20989;52.566;13.346;2023-05-02T07:16:49;21.10;45.90
34776;DHT22;20989;52.566;13.346;2023-05-02T07:19:50;21.10;45.90
34776;DHT22;20989;52.566;13.346;2023-05-02T07:22:51;21.00;45.70
34776;DHT22;20989;52.566;13.346;2023-05-02T07:25:51;21.00;45.80
34776;DHT22;20989;52.566;13.346;2023-05-02T07:28:52;21.00;45.70
34776;DHT22;20989;52.566;13.346;2023-05-02T07:31:53;21.00;45.80
34776;DHT22;20989;52.566;13.346;2023-05-02T07:34:54;21.00;45.80
34776;DHT22;20989;52.566;13.346;2023-05-02T07:37:55;21.00;45.90
34776;DHT22;20989;52.566;13.346;2023-05-02T07:40:59;21.00;45.90
34776;DHT22;20989;52.566;13.346;2023-05-02T07:44:00;21.00;45.80
34776;DHT22;20989;52.566;13.346;2023-05-02T07:47:01;21.00;45.80
34776;DHT22;20989;52.566;13.346;2023-05-02T07:50:02;21.00;45.80
34776;DHT22;20989;52.566;13.346;2023-05-02T07:53:03;21.00;45.80
34776;DHT22;20989;52.566;13.346;2023-05-02T07:56:06;21.00;45.80
34776;DHT22;20989;52.566;13.346;2023-05-02T07:59:07;21.00;45.80
34776;DHT22;20989;52.566;13.346;2023-05-02T08:02:09;21.00;45.80
34776;DHT22;20989;52.566;13.346;2023-05-02T08:05:12;21.00;45.80
34776;DHT22;20989;52.566;13.346;2023-05-02T08:08:13;21.00;45.80
34776;DHT22;20989;52.566;13.346;2023-05-02T08:11:14;21.00;45.80
34776;DHT22;20989;52.566;13.346;2023-05-02T08:14:15;21.00;45.80
34776;DHT22;20989;52.566;13.346;2023-05-02T08:17:16;21.00;45.70
34776;DHT22;20989;52.566;13.346;2023-05-02T08:20:16;21.00;45.80
34776;DHT22;20989;52.566;13.346;2023-05-02T08:23:17;21.00;45.80
34776;DHT22;20989;52.566;13.346;2023-05-02T08:26:18;21.00;45.80
34776;DHT22;20989;52.566;13.346;2023-05-02T08:29:22;21.00;45.90
34776;DHT22;20989;52.566;13.346;2023-05-02T08:32:23;20.90;45.80
34776;DHT22;20989;52.566;13.346;2023-05-02T08:35:23;21.00;45.80
34776;DHT22;20989;52.566;13.346;2023-05-02T08:38:24;20.90;45.80
34776;DHT22;20989;52.566;13.346;2023-05-02T08:41:28;21.00;45.80
34776;DHT22;20989;52.566;13.346;2023-05-02T08:44:31;20.90;45.80
34776;DHT22;20989;52.566;13.346;2023-05-02T08:47:32;21.00;45.80
34776;DHT22;20989;52.566;13.346;2023-05-02T08:50:40;20.90;45.80
34776;DHT22;20989;52.566;13.346;2023-05-02T08:53:42;20.90;45.80
34776;DHT22;20989;52.566;13.346;2023-05-02T08:56:44;20.90;45.80
34776;DHT22;20989;52.566;13.346;2023-05-02T08:59:45;20.90;45.80
34776;DHT22;20989;52.566;13.346;2023-05-02T09:03:10;21.00;45.90
34776;DHT22;20989;52.566;13.346;2023-05-02T09:06:21;21.00;45.90
34776;DHT22;20989;52.566;13.346;2023-05-02T09:09:22;20.90;45.80
34776;DHT22;20989;52.566;13.346;2023-05-02T09:12:25;20.90;45.90
34776;DHT22;20989;52.566;13.346;2023-05-02T09:15:26;21.00;45.80
34776;DHT22;20989;52.566;13.346;2023-05-02T09:18:38;20.90;45.80
34776;DHT22;20989;52.566;13.346;2023-05-02T09:21:39;21.00;45.90
34776;DHT22;20989;52.566;13.346;2023-05-02T09:24:40;20.90;45.80
34776;DHT22;20989;52.566;13.346;2023-05-02T09:27:49;20.90;45.80
34776;DHT22;20989;52.566;13.346;2023-05-02T09:31:06;20.90;45.90
34776;DHT22;20989;52.566;13.346;2023-05-02T09:34:13;20.90;45.90
34776;DHT22;20989;52.566;13.346;2023-05-02T09:37:33;20.90;45.90
34776;DHT22;20989;52.566;13.346;2023-05-02T09:40:34;20.90;45.90
34776;DHT22;20989;52.566;13.346;2023-05-02T09:43:36;20.90;45.90
34776;DHT22;20989;52.566;13.346;2023-05-02T09:46:51;20.90;45.90
34776;DHT22;20989;52.566;13.346;2023-05-02T09:49:52;20.90;45.90
34776;DHT22;20989;52.566;13.346;2023-05-02T09:53:08;20.90;45.90
34776;DHT22;20989;52.566;13.346;2023-05-02T09:56:11;20.90;45.90
34776;DHT22;20989;52.566;13.346;2023-05-02T09:59:15;21.00;45.90
34776;DHT22;20989;52.566;13.346;2023-05-02T10:02:16;20.90;45.90
34776;DHT22;20989;52.566;13.346;2023-05-02T10:05:17;20.90;45.90
34776;DHT22;20989;52.566;13.346;2023-05-02T10:08:20;20.90;45.90
34776;DHT22;20989;52.566;13.346;2023-05-02T10:11:21;21.00;46.00
34776;DHT22;20989;52.566;13.346;2023-05-02T10:14:25;21.00;45.90
34776;DHT22;20989;52.566;13.346;2023-05-02T10:17:30;21.10;45.90
34776;DHT22;20989;52.566;13.346;2023-05-02T10:20:42;21.00;46.00
34776;DHT22;20989;52.566;13.346;2023-05-02T10:23:43;21.10;46.10
34776;DHT22;20989;52.566;13.346;2023-05-02T10:26:44;21.10;45.90
34776;DHT22;20989;52.566;13.346;2023-05-02T10:29:46;21.20;46.00
34776;DHT22;20989;52.566;13.346;2023-05-02T10:32:47;21.20;46.00
34776;DHT22;20989;52.566;13.346;2023-05-02T10:35:49;21.20;46.20
34776;DHT22;20989;52.566;13.346;2023-05-02T10:38:50;21.30;45.90
34776;DHT22;20989;52.566;13.346;2023-05-02T10:41:54;21.30;45.90
34776;DHT22;20989;52.566;13.346;2023-05-02T10:44:55;21.30;45.90
34776;DHT22;20989;52.566;13.346;2023-05-02T10:48:19;21.30;45.90
34776;DHT22;20989;52.566;13.346;2023-05-02T10:51:27;21.40;45.40
34776;DHT22;20989;52.566;13.346;2023-05-02T10:54:29;21.30;45.50
34776;DHT22;20989;52.566;13.346;2023-05-02T10:57:29;21.30;45.70
34776;DHT22;20989;52.566;13.346;2023-05-02T11:00:31;21.40;45.40
34776;DHT22;20989;52.566;13.346;2023-05-02T11:04:01;21.30;45.40
34776;DHT22;20989;52.566;13.346;2023-05-02T11:13:47;21.30;45.10
34776;DHT22;20989;52.566;13.346;2023-05-02T11:20:18;21.20;45.00
34776;DHT22;20989;52.566;13.346;2023-05-02T11:23:21;21.20;44.90
34776;DHT22;20989;52.566;13.346;2023-05-02T11:26:25;21.20;44.70
34776;DHT22;20989;52.566;13.346;2023-05-02T11:30:01;21.20;44.80
34776;DHT22;20989;52.566;13.346;2023-05-02T11:36:06;21.10;43.90
34776;DHT22;20989;52.566;13.346;2023-05-02T11:39:18;21.20;44.20
34776;DHT22;20989;52.566;13.346;2023-05-02T11:42:29;21.20;44.10
34776;DHT22;20989;52.566;13.346;2023-05-02T11:45:36;21.20;44.60
34776;DHT22;20989;52.566;13.346;2023-05-02T11:48:38;21.20;44.30
34776;DHT22;20989;52.566;13.346;2023-05-02T11:51:41;21.20;44.30
34776;DHT22;20989;52.566;13.346;2023-05-02T11:54:42;21.20;44.90
34776;DHT22;20989;52.566;13.346;2023-05-02T11:57:42;21.20;44.50
34776;DHT22;20989;52.566;13.346;2023-05-02T12:00:44;21.30;45.00
34776;DHT22;20989;52.566;13.346;2023-05-02T12:03:46;21.30;45.20
34776;DHT22;20989;52.566;13.346;2023-05-02T12:06:58;21.40;45.20
34776;DHT22;20989;52.566;13.346;2023-05-02T12:09:58;21.40;45.00
34776;DHT22;20989;52.566;13.346;2023-05-02T12:13:03;21.40;44.90
34776;DHT22;20989;52.566;13.346;2023-05-02T12:16:05;21.40;44.90
34776;DHT22;20989;52.566;13.346;2023-05-02T12:19:06;21.50;45.20
34776;DHT22;20989;52.566;13.346;2023-05-02T12:22:08;21.50;45.20
34776;DHT22;20989;52.566;13.346;2023-05-02T12:25:09;21.50;45.00
34776;DHT22;20989;52.566;13.346;2023-05-02T12:28:10;21.40;45.10
34776;DHT22;20989;52.566;13.346;2023-05-02T12:31:11;21.40;44.90
34776;DHT22;20989;52.566;13.346;2023-05-02T12:34:12;21.30;44.20
34776;DHT22;20989;52.566;13.346;2023-05-02T12:37:21;21.30;43.70
34776;DHT22;20989;52.566;13.346;2023-05-02T12:40:23;21.40;44.20
34776;DHT22;20989;52.566;13.346;2023-05-02T12:43:25;21.40;44.00
34776;DHT22;20989;52.566;13.346;2023-05-02T12:46:26;21.40;43.80
34776;DHT22;20989;52.566;13.346;2023-05-02T12:49:28;21.40;44.20
34776;DHT22;20989;52.566;13.346;2023-05-02T12:52:51;21.40;44.50
34776;DHT22;20989;52.566;13.346;2023-05-02T12:56:02;21.40;44.70
34776;DHT22;20989;52.566;13.346;2023-05-02T12:59:03;21.30;44.70
34776;DHT22;20989;52.566;13.346;2023-05-02T13:02:05;21.30;44.70
34776;DHT22;20989;52.566;13.346;2023-05-02T13:05:14;21.30;44.60
34776;DHT22;20989;52.566;13.346;2023-05-02T13:08:15;21.30;44.90
34776;DHT22;20989;52.566;13.346;2023-05-02T13:11:15;21.30;44.70
34776;DHT22;20989;52.566;13.346;2023-05-02T13:14:17;21.30;44.70
34776;DHT22;20989;52.566;13.346;2023-05-02T13:17:18;21.30;44.70
34776;DHT22;20989;52.566;13.346;2023-05-02T13:20:18;21.30;44.50
34776;DHT22;20989;52.566;13.346;2023-05-02T13:23:19;21.30;44.60
34776;DHT22;20989;52.566;13.346;2023-05-02T13:26:20;21.40;44.70
34776;DHT22;20989;52.566;13.346;2023-05-02T13:29:21;21.30;44.70
34776;DHT22;20989;52.566;13.346;2023-05-02T13:32:22;21.30;44.70
34776;DHT22;20989;52.566;13.346;2023-05-02T13:35:22;21.30;44.60
34776;DHT22;20989;52.566;13.346;2023-05-02T13:38:24;21.30;44.80
34776;DHT22;20989;52.566;13.346;2023-05-02T13:41:24;21.30;44.50
34776;DHT22;20989;52.566;13.346;2023-05-02T13:44:25;21.30;44.60
34776;DHT22;20989;52.566;13.346;2023-05-02T13:47:26;21.30;44.60
34776;DHT22;20989;52.566;13.346;2023-05-02T13:50:27;21.30;44.70
34776;DHT22;20989;52.566;13.346;2023-05-02T13:53:28;21.30;44.70
34776;DHT22;20989;52.566;13.346;2023-05-02T13:56:28;21.30;44.60
34776;DHT22;20989;52.566;13.346;2023-05-02T13:59:29;21.40;44.60
34776;DHT22;20989;52.566;13.346;2023-05-02T14:02:30;21.30;44.70
34776;DHT22;20989;52.566;13.346;2023-05-02T14:05:31;21.40;44.70
34776;DHT22;20989;52.566;13.346;2023-05-02T14:08:32;21.30;44.50
34776;DHT22;20989;52.566;13.346;2023-05-02T14:11:32;21.40;44.40
34776;DHT22;20989;52.566;13.346;2023-05-02T14:14:33;21.30;44.40
34776;DHT22;20989;52.566;13.346;2023-05-02T14:17:35;21.30;44.50
34776;DHT22;20989;52.566;13.346;2023-05-02T14:20:36;21.30;44.50
34776;DHT22;20989;52.566;13.346;2023-05-02T14:23:37;21.40;44.70
34776;DHT22;20989;52.566;13.346;2023-05-02T14:26:38;21.30;44.60
34776;DHT22;20989;52.566;13.346;2023-05-02T14:29:39;21.30;44.70
34776;DHT22;20989;52.566;13.346;2023-05-02T14:32:39;21.30;44.50
34776;DHT22;20989;52.566;13.346;2023-05-02T14:35:40;21.30;44.30
34776;DHT22;20989;52.566;13.346;2023-05-02T14:38:41;21.30;44.60
34776;DHT22;20989;52.566;13.346;2023-05-02T14:41:41;21.30;44.40
34776;DHT22;20989;52.566;13.346;2023-05-02T14:44:42;21.30;44.40
34776;DHT22;20989;52.566;13.346;2023-05-02T14:47:43;21.30;44.20
34776;DHT22;20989;52.566;13.346;2023-05-02T14:50:44;21.30;44.50
34776;DHT22;20989;52.566;13.346;2023-05-02T14:53:46;21.30;44.20
34776;DHT22;20989;52.566;13.346;2023-05-02T14:56:47;21.30;44.50
34776;DHT22;20989;52.566;13.346;2023-05-02T14:59:49;21.30;45.00
34776;DHT22;20989;52.566;13.346;2023-05-02T15:02:50;21.30;44.60
34776;DHT22;20989;52.566;13.346;2023-05-02T15:05:50;21.30;44.50
34776;DHT22;20989;52.566;13.346;2023-05-02T15:08:51;21.30;44.40
34776;DHT22;20989;52.566;13.346;2023-05-02T15:11:52;21.30;44.40
34776;DHT22;20989;52.566;13.346;2023-05-02T15:14:53;21.30;43.90
34776;DHT22;20989;52.566;13.346;2023-05-02T15:17:54;21.40;44.10
34776;DHT22;20989;52.566;13.346;2023-05-02T15:20:54;21.40;44.10
34776;DHT22;20989;52.566;13.346;2023-05-02T15:23:55;21.50;44.00
34776;DHT22;20989;52.566;13.346;2023-05-02T15:26:56;21.60;43.80
34776;DHT22;20989;52.566;13.346;2023-05-02T15:29:57;21.50;44.20
34776;DHT22;20989;52.566;13.346;2023-05-02T15:32:58;21.50;44.20
34776;DHT22;20989;52.566;13.346;2023-05-02T15:35:58;21.50;44.20
34776;DHT22;20989;52.566;13.346;2023-05-02T15:39:00;21.50;44.10
34776;DHT22;20989;52.566;13.346;2023-05-02T15:42:02;21.50;44.40
34776;DHT22;20989;52.566;13.346;2023-05-02T15:45:04;21.50;44.10
34776;DHT22;20989;52.566;13.346;2023-05-02T15:48:05;21.60;44.00
34776;DHT22;20989;52.566;13.346;2023-05-02T15:51:06;21.60;44.10
34776;DHT22;20989;52.566;13.346;2023-05-02T15:54:08;21.60;44.30
34776;DHT22;20989;52.566;13.346;2023-05-02T15:57:09;21.60;44.30
34776;DHT22;20989;52.566;13.346;2023-05-02T16:00:12;21.70;45.10
34776;DHT22;20989;52.566;13.346;2023-05-02T16:03:16;21.60;44.60
34776;DHT22;20989;52.566;13.346;2023-05-02T16:06:17;21.60;44.40
34776;DHT22;20989;52.566;13.346;2023-05-02T16:09:17;21.70;44.50
34776;DHT22;20989;52.566;13.346;2023-05-02T16:12:18;21.70;44.30
34776;DHT22;20989;52.566;13.346;2023-05-02T16:15:19;21.70;44.40
34776;DHT22;20989;52.566;13.346;2023-05-02T16:18:20;21.80;44.30
34776;DHT22;20989;52.566;13.346;2023-05-02T16:21:22;21.80;44.30
34776;DHT22;20989;52.566;13.346;2023-05-02T16:24:23;21.80;44.20
34776;DHT22;20989;52.566;13.346;2023-05-02T16:27:24;21.80;44.20
34776;DHT22;20989;52.566;13.346;2023-05-02T16:30:24;21.80;44.20
34776;DHT22;20989;52.566;13.346;2023-05-02T16:33:26;21.80;44.20
34776;DHT22;20989;52.566;13.346;2023-05-02T16:36:27;21.90;44.20
34776;DHT22;20989;52.566;13.346;2023-05-02T16:39:28;21.80;44.40
34776;DHT22;20989;52.566;13.346;2023-05-02T16:42:29;21.80;44.40
34776;DHT22;20989;52.566;13.346;2023-05-02T16:45:31;21.80;44.50
34776;DHT22;20989;52.566;13.346;2023-05-02T16:48:32;21.80;44.50
34776;DHT22;20989;52.566;13.346;2023-05-02T16:51:33;21.80;44.50
34776;DHT22;20989;52.566;13.346;2023-05-02T16:54:34;21.80;44.40
34776;DHT22;20989;52.566;13.346;2023-05-02T16:57:34;21.90;44.60
34776;DHT22;20989;52.566;13.346;2023-05-02T17:00:35;21.80;44.40
34776;DHT22;20989;52.566;13.346;2023-05-02T17:03:38;21.80;44.50
34776;DHT22;20989;52.566;13.346;2023-05-02T17:06:40;21.80;44.70
34776;DHT22;20989;52.566;13.346;2023-05-02T17:09:41;21.80;44.50
34776;DHT22;20989;52.566;13.346;2023-05-02T17:12:42;21.80;44.60
34776;DHT22;20989;52.566;13.346;2023-05-02T17:15:44;21.80;44.70
34776;DHT22;20989;52.566;13.346;2023-05-02T17:18:45;21.80;44.60
34776;DHT22;20989;52.566;13.346;2023-05-02T17:21:46;21.80;44.60
34776;DHT22;20989;52.566;13.346;2023-05-02T17:24:47;21.80;44.70
34776;DHT22;20989;52.566;13.346;2023-05-02T17:27:52;21.80;44.60
34776;DHT22;20989;52.566;13.346;2023-05-02T17:30:53;21.80;44.80
34776;DHT22;20989;52.566;13.346;2023-05-02T17:33:53;21.90;44.70
34776;DHT22;20989;52.566;13.346;2023-05-02T17:36:54;22.00;44.60
34776;DHT22;20989;52.566;13.346;2023-05-02T17:39:55;22.00;44.40
34776;DHT22;20989;52.566;13.346;2023-05-02T17:42:55;22.00;44.40
34776;DHT22;20989;52.566;13.346;2023-05-02T17:45:58;22.00;44.30
34776;DHT22;20989;52.566;13.346;2023-05-02T17:48:58;22.00;44.40
34776;DHT22;20989;52.566;13.346;2023-05-02T17:52:00;22.00;44.40
34776;DHT22;20989;52.566;13.346;2023-05-02T17:55:00;22.00;44.30
34776;DHT22;20989;52.566;13.346;2023-05-02T17:58:01;22.00;44.30
34776;DHT22;20989;52.566;13.346;2023-05-02T18:01:09;22.00;44.30
34776;DHT22;20989;52.566;13.346;2023-05-02T18:04:10;22.00;44.30
34776;DHT22;20989;52.566;13.346;2023-05-02T18:07:13;22.00;44.60
34776;DHT22;20989;52.566;13.346;2023-05-02T18:10:14;21.90;44.80
34776;DHT22;20989;52.566;13.346;2023-05-02T18:13:14;21.90;44.70
34776;DHT22;20989;52.566;13.346;2023-05-02T18:16:15;22.00;44.80
34776;DHT22;20989;52.566;13.346;2023-05-02T18:19:16;21.90;44.80
34776;DHT22;20989;52.566;13.346;2023-05-02T18:22:17;21.90;44.90
34776;DHT22;20989;52.566;13.346;2023-05-02T18:25:20;22.00;45.10
34776;DHT22;20989;52.566;13.346;2023-05-02T18:28:21;22.10;44.50
34776;DHT22;20989;52.566;13.346;2023-05-02T18:31:22;22.10;45.00
34776;DHT22;20989;52.566;13.346;2023-05-02T18:34:23;22.20;45.00
34776;DHT22;20989;52.566;13.346;2023-05-02T18:37:23;22.20;44.90
34776;DHT22;20989;52.566;13.346;2023-05-02T18:40:30;22.10;44.90
34776;DHT22;20989;52.566;13.346;2023-05-02T18:43:32;22.10;45.00
34776;DHT22;20989;52.566;13.346;2023-05-02T18:46:34;22.30;44.90
34776;DHT22;20989;52.566;13.346;2023-05-02T18:49:35;22.30;44.90
34776;DHT22;20989;52.566;13.346;2023-05-02T18:52:35;22.30;44.60
34776;DHT22;20989;52.566;13.346;2023-05-02T18:55:36;22.30;44.80
34776;DHT22;20989;52.566;13.346;2023-05-02T18:58:37;22.20;44.90
34776;DHT22;20989;52.566;13.346;2023-05-02T19:01:37;22.20;45.50
34776;DHT22;20989;52.566;13.346;2023-05-02T19:04:38;22.30;44.90
34776;DHT22;20989;52.566;13.346;2023-05-02T19:07:39;22.30;45.10
34776;DHT22;20989;52.566;13.346;2023-05-02T19:10:40;22.20;45.10
34776;DHT22;20989;52.566;13.346;2023-05-02T19:13:41;22.10;45.10
34776;DHT22;20989;52.566;13.346;2023-05-02T19:16:41;22.10;45.10
34776;DHT22;20989;52.566;13.346;2023-05-02T19:19:42;22.00;45.10
34776;DHT22;20989;52.566;13.346;2023-05-02T19:22:45;22.00;45.20